Time;durP1;ratioP1;P1;durP2;ratioP2;P2;SDS_P1;SDS_P2;PMS_P1;PMS_P2;Temp;Humidity;BMP_temperature;BMP_pressure;BME280_temperature;BME280_humidity;BME280_pressure;Samples;Min_cycle;Max_cycle;Signal;HPM_P1;HPM_P2
2021/12/22 00:00:25;;;;;;;15.52;9.68;;;;;;;3.21;82.22;100791.66;5018552;28;20049;-58
2021/12/22 00:02:50;;;;;;;14.63;9.70;;;;;;;3.22;81.65;100790.00;5034622;28;20060;-58
2021/12/22 00:05:20;;;;;;;13.60;9.65;;;;;;;3.21;81.89;100796.78;5036194;28;20034;-58
2021/12/22 00:07:46;;;;;;;11.25;9.25;;;;;;;3.21;81.34;100781.41;5035180;28;20037;-58
2021/12/22 00:10:12;;;;;;;14.40;8.70;;;;;;;3.21;81.51;100783.97;5036351;28;20036;-58
2021/12/22 00:12:38;;;;;;;10.82;8.70;;;;;;;3.20;81.80;100792.47;5035977;28;20047;-58
2021/12/22 00:15:05;;;;;;;12.05;8.70;;;;;;;3.20;81.40;100792.47;5036020;28;20112;-58
2021/12/22 00:17:31;;;;;;;11.57;9.05;;;;;;;3.20;81.60;100785.66;5034662;28;20132;-58
2021/12/22 00:19:56;;;;;;;16.20;8.88;;;;;;;3.18;81.21;100782.13;5052116;28;20124;-58
2021/12/22 00:22:22;;;;;;;11.23;9.07;;;;;;;3.17;81.47;100776.94;5034616;28;20128;-59
2021/12/22 00:24:47;;;;;;;12.18;8.80;;;;;;;3.17;81.21;100790.63;5036204;28;20140;-58
2021/12/22 00:27:13;;;;;;;11.77;7.63;;;;;;;3.16;81.32;100780.28;5035866;28;20069;-59
2021/12/22 00:29:39;;;;;;;12.65;9.15;;;;;;;3.16;81.53;100781.16;5051824;28;20041;-59
2021/12/22 00:32:12;;;;;;;12.10;7.35;;;;;;;3.16;81.38;100780.28;5034549;28;20530;-59
2021/12/22 00:34:53;;;;;;;11.60;7.68;;;;;;;3.16;81.59;100777.72;5051546;28;20116;-58
2021/12/22 00:37:24;;;;;;;13.48;7.30;;;;;;;3.15;81.53;100775.97;5035940;28;20044;-59
2021/12/22 00:39:51;;;;;;;10.48;7.53;;;;;;;3.14;81.67;100775.06;5034298;28;20115;-58
2021/12/22 00:42:17;;;;;;;11.05;8.25;;;;;;;3.14;81.25;100769.06;5034135;28;20033;-59
2021/12/22 00:44:50;;;;;;;10.20;7.40;;;;;;;3.13;82.09;100759.63;5033871;28;20395;-58
2021/12/22 00:47:21;;;;;;;11.43;8.15;;;;;;;3.13;81.61;100762.19;5034577;28;20099;-58
2021/12/22 00:49:47;;;;;;;11.73;7.25;;;;;;;3.12;81.58;100768.09;5034017;28;20060;-58
2021/12/22 00:52:15;;;;;;;8.43;6.57;;;;;;;3.10;81.28;100768.00;5034617;28;20396;-59
2021/12/22 00:54:41;;;;;;;11.70;7.80;;;;;;;3.11;81.37;100766.31;5034414;28;20446;-59
2021/12/22 00:57:07;;;;;;;10.80;7.75;;;;;;;3.12;81.59;100770.66;5035160;28;20136;-59
2021/12/22 00:59:36;;;;;;;12.95;8.15;;;;;;;3.11;81.77;100762.09;5035413;28;20401;-59
2021/12/22 01:02:07;;;;;;;9.23;6.97;;;;;;;3.11;81.35;100766.31;5033980;28;20107;-58
2021/12/22 01:04:33;;;;;;;11.18;6.95;;;;;;;3.11;81.66;100766.31;5034955;28;20036;-58
2021/12/22 01:07:05;;;;;;;8.80;7.13;;;;;;;3.11;81.68;100764.66;5033815;28;20040;-58
2021/12/22 01:09:31;;;;;;;9.25;6.22;;;;;;;3.11;81.44;100766.31;5050516;28;20114;-58
2021/12/22 01:11:57;;;;;;;10.48;7.30;;;;;;;3.10;81.89;100764.56;5033632;28;20037;-58
2021/12/22 01:14:25;;;;;;;9.02;6.97;;;;;;;3.11;82.00;100771.44;5033996;28;20038;-58
2021/12/22 01:16:54;;;;;;;12.35;6.90;;;;;;;3.11;81.59;100781.69;5034672;28;20037;-58
2021/12/22 01:19:31;;;;;;;10.02;7.53;;;;;;;3.11;81.62;100787.72;5050214;28;20480;-59
2021/12/22 01:22:08;;;;;;;12.60;6.90;;;;;;;3.10;81.22;100783.38;5034782;28;20037;-58
2021/12/22 01:24:34;;;;;;;11.57;7.07;;;;;;;3.11;81.39;100784.25;5050526;28;20043;-58
2021/12/22 01:27:07;;;;;;;8.85;6.57;;;;;;;3.11;81.46;100779.13;5034620;28;20129;-58
2021/12/22 01:29:34;;;;;;;10.13;7.72;;;;;;;3.09;81.69;100773.94;5050389;28;20547;-58
2021/12/22 01:32:03;;;;;;;12.35;7.28;;;;;;;3.09;81.56;100776.50;5033262;28;20557;-58
2021/12/22 01:34:29;;;;;;;9.27;6.82;;;;;;;3.09;81.13;100776.50;5034743;28;20452;-58
2021/12/22 01:36:56;;;;;;;11.32;6.82;;;;;;;3.08;80.87;100776.38;5033098;28;20508;-58
2021/12/22 01:39:27;;;;;;;10.95;6.80;;;;;;;3.08;81.78;100782.41;5033153;28;20111;-58
2021/12/22 01:41:53;;;;;;;7.68;6.55;;;;;;;3.07;81.28;100780.63;5034260;28;20504;-58
2021/12/22 01:44:35;;;;;;;8.88;6.25;;;;;;;3.05;81.19;100777.97;5032940;28;20068;-58
2021/12/22 01:49:53;;;;;;;12.43;6.75;;;;;;;3.04;81.32;100776.19;5034724;28;20033;-58
2021/12/22 01:52:21;;;;;;;10.00;7.22;;;;;;;3.04;81.29;100767.66;5048894;28;20041;-58
2021/12/22 01:55:05;;;;;;;8.70;6.38;;;;;;;3.03;81.59;100771.91;5032848;28;20037;-58
2021/12/22 01:57:33;;;;;;;10.60;6.30;;;;;;;3.04;81.31;100770.22;5032945;28;20045;-58
2021/12/22 02:00:01;;;;;;;9.23;7.53;;;;;;;3.04;81.54;100765.09;5034270;28;20164;-58
2021/12/22 02:02:30;;;;;;;8.90;7.57;;;;;;;3.03;81.98;100759.09;5033846;28;20049;-58
2021/12/22 02:04:56;;;;;;;8.77;6.20;;;;;;;3.04;81.18;100765.94;5032653;28;20037;-58
2021/12/22 02:07:21;;;;;;;8.20;5.85;;;;;;;3.03;81.52;100773.56;5034012;28;20045;-58
2021/12/22 02:12:15;;;;;;;7.97;6.20;;;;;;;3.02;81.71;100765.00;5032542;28;20048;-59
2021/12/22 02:14:41;;;;;;;9.63;7.35;;;;;;;3.02;81.60;100775.25;5034011;28;20404;-59
2021/12/22 02:17:10;;;;;;;8.85;6.85;;;;;;;3.02;81.25;100777.81;5032425;28;20040;-58
2021/12/22 02:19:37;;;;;;;11.27;7.22;;;;;;;3.03;81.28;100773.56;5033763;28;20068;-59
2021/12/22 02:22:08;;;;;;;9.32;6.53;;;;;;;3.02;81.52;100770.13;5032479;28;20040;-59
2021/12/22 02:24:36;;;;;;;8.68;6.72;;;;;;;3.01;81.67;100773.50;5032554;28;20037;-58
2021/12/22 02:27:10;;;;;;;9.93;7.20;;;;;;;3.01;81.19;100775.16;5033597;28;20033;-59
2021/12/22 02:29:41;;;;;;;9.65;6.90;;;;;;;3.01;81.72;100775.16;5016622;28;20044;-59
2021/12/22 02:32:20;;;;;;;9.00;6.57;;;;;;;3.00;81.38;100763.13;5032711;28;20064;-58
2021/12/22 02:34:48;;;;;;;9.52;6.28;;;;;;;2.99;81.47;100759.69;5033559;28;20044;-58
2021/12/22 02:37:17;;;;;;;11.98;6.28;;;;;;;3.00;81.87;100760.56;5034387;28;20033;-58
2021/12/22 02:39:53;;;;;;;9.88;7.13;;;;;;;2.98;81.09;100752.81;5049643;28;20386;-58
2021/12/22 02:42:21;;;;;;;7.95;6.10;;;;;;;2.98;81.75;100755.38;5049960;28;20033;-58
2021/12/22 02:44:46;;;;;;;10.65;6.65;;;;;;;2.98;81.49;100757.94;5032349;28;20033;-58
2021/12/22 02:47:20;;;;;;;11.25;6.78;;;;;;;2.98;81.18;100762.16;5033555;28;20059;-59
2021/12/22 02:49:47;;;;;;;8.50;5.93;;;;;;;2.98;81.57;100760.50;5033652;28;20045;-58
2021/12/22 02:52:13;;;;;;;8.13;6.93;;;;;;;2.97;81.50;100761.28;5048761;28;20037;-59
2021/12/22 02:54:47;;;;;;;8.25;6.40;;;;;;;2.98;81.76;100765.63;5033446;28;20042;-58
2021/12/22 02:57:49;;;;;;;10.90;7.55;;;;;;;2.98;81.16;100768.19;5032662;28;20033;-58
2021/12/22 03:03:07;;;;;;;9.05;5.88;;;;;;;2.96;81.08;100751.84;5041468;28;20053;-59
2021/12/22 03:05:36;;;;;;;10.27;7.25;;;;;;;2.95;81.24;100754.31;5034976;28;20037;-58
2021/12/22 03:08:02;;;;;;;7.72;6.68;;;;;;;2.96;81.11;100756.97;5053269;28;20045;-58
2021/12/22 03:10:28;;;;;;;6.63;5.65;;;;;;;2.96;81.40;100750.97;5036281;28;20045;-58
2021/12/22 03:13:03;;;;;;;8.18;6.18;;;;;;;2.95;81.42;100747.50;5037068;28;20041;-58
2021/12/22 03:15:31;;;;;;;8.98;6.25;;;;;;;2.95;81.56;100755.19;5036133;28;20048;-58
2021/12/22 03:17:57;;;;;;;7.93;6.93;;;;;;;2.94;81.42;100753.41;5036177;28;20087;-58
2021/12/22 03:20:23;;;;;;;8.30;6.38;;;;;;;2.94;81.18;100755.13;5036164;28;20029;-58
2021/12/22 03:22:52;;;;;;;7.82;6.10;;;;;;;2.95;81.33;100746.63;5037085;28;20041;-58
2021/12/22 03:25:26;;;;;;;9.13;6.53;;;;;;;2.92;81.43;100739.63;5035761;28;20033;-58
2021/12/22 03:27:52;;;;;;;8.07;6.53;;;;;;;2.92;81.57;100749.88;5036191;28;20033;-58
2021/12/22 03:30:21;;;;;;;8.07;6.82;;;;;;;2.93;81.50;100750.78;5036603;28;20125;-58
2021/12/22 03:32:50;;;;;;;10.85;6.50;;;;;;;2.91;81.09;100755.78;5035546;28;20037;-58
2021/12/22 03:35:19;;;;;;;11.27;6.93;;;;;;;2.91;81.67;100747.25;5035690;28;20091;-58
2021/12/22 03:37:46;;;;;;;9.65;7.40;;;;;;;2.90;81.60;100756.59;5036846;28;20045;-58
2021/12/22 03:40:12;;;;;;;9.15;6.50;;;;;;;2.91;81.24;100755.78;5036613;28;20044;-58
2021/12/22 03:42:40;;;;;;;7.68;6.30;;;;;;;2.91;81.31;100773.72;5035397;28;20033;-58
2021/12/22 03:45:06;;;;;;;8.57;6.53;;;;;;;2.92;81.55;100772.94;5036347;28;20038;-58
2021/12/22 03:47:31;;;;;;;8.90;6.28;;;;;;;2.91;81.29;100770.28;5036543;28;20033;-58
2021/12/22 03:49:57;;;;;;;10.07;6.97;;;;;;;2.91;81.22;100768.59;5035239;28;20049;-58
2021/12/22 03:52:22;;;;;;;9.80;7.28;;;;;;;2.91;81.30;100768.59;5035283;28;20481;-58
2021/12/22 03:54:54;;;;;;;10.77;6.55;;;;;;;2.92;81.61;100769.50;5035062;28;20037;-59
2021/12/22 03:57:20;;;;;;;9.02;6.47;;;;;;;2.91;81.03;100767.72;5036840;28;20068;-58
2021/12/22 03:59:46;;;;;;;7.80;6.65;;;;;;;2.91;81.34;100767.72;5035059;28;20440;-58
2021/12/22 04:02:12;;;;;;;10.45;7.18;;;;;;;2.89;81.24;100768.53;5018672;28;20053;-59
2021/12/22 04:04:43;;;;;;;8.40;6.75;;;;;;;2.90;81.19;100777.06;5036167;28;20033;-58
2021/12/22 04:07:09;;;;;;;10.07;6.53;;;;;;;2.89;81.15;100775.31;5035013;28;20045;-58
2021/12/22 04:09:34;;;;;;;12.77;8.73;;;;;;;2.89;81.35;100776.19;5036085;28;20508;-58
2021/12/22 04:11:59;;;;;;;9.63;7.25;;;;;;;2.88;81.22;100776.13;5035819;28;20112;-58
2021/12/22 04:14:27;;;;;;;10.15;7.75;;;;;;;2.87;80.98;100777.78;5036213;28;20038;-59
2021/12/22 04:16:53;;;;;;;11.48;7.28;;;;;;;2.87;80.99;100782.03;5034503;28;20029;-59
2021/12/22 04:19:18;;;;;;;9.65;7.38;;;;;;;2.87;81.35;100784.59;5051337;28;20441;-58
2021/12/22 04:21:50;;;;;;;10.82;6.95;;;;;;;2.87;81.45;100779.47;5035957;28;20120;-58
2021/12/22 04:24:21;;;;;;;9.35;6.70;;;;;;;2.87;81.30;100785.47;5034503;28;20128;-58
2021/12/22 04:26:56;;;;;;;11.00;6.97;;;;;;;2.86;81.21;100777.72;5036262;28;20121;-58
2021/12/22 04:29:24;;;;;;;9.20;7.18;;;;;;;2.84;81.40;100769.91;5035865;28;20076;-58
2021/12/22 04:31:50;;;;;;;9.98;7.13;;;;;;;2.86;81.66;100780.28;5017971;28;20061;-58
2021/12/22 04:34:15;;;;;;;10.80;7.78;;;;;;;2.85;81.65;100773.38;5035655;28;20033;-58
2021/12/22 04:36:41;;;;;;;10.13;7.20;;;;;;;2.84;81.62;100775.03;5035544;28;20032;-59
2021/12/22 04:39:11;;;;;;;12.77;8.93;;;;;;;2.84;81.77;100775.03;5035588;28;20135;-59
2021/12/22 04:41:39;;;;;;;10.98;6.68;;;;;;;2.83;81.07;100769.84;5035350;28;20176;-58
2021/12/22 04:44:05;;;;;;;10.05;7.53;;;;;;;2.82;81.65;100768.94;5034290;28;20036;-58
2021/12/22 04:46:30;;;;;;;12.30;7.63;;;;;;;2.82;81.14;100766.38;5035470;28;20060;-58
2021/12/22 04:48:59;;;;;;;9.30;7.53;;;;;;;2.81;81.53;100769.72;5035140;28;20041;-58
2021/12/22 04:51:27;;;;;;;13.23;8.52;;;;;;;2.81;81.63;100764.63;5050756;28;20052;-58
2021/12/22 04:56:39;;;;;;;10.80;7.47;;;;;;;2.81;81.17;100764.63;5035179;28;20033;-59
2021/12/22 04:59:08;;;;;;;11.77;8.40;;;;;;;2.81;81.37;100772.28;5035339;28;20166;-59
2021/12/22 05:01:37;;;;;;;11.65;7.70;;;;;;;2.82;81.57;100768.06;5035034;28;20057;-59
2021/12/22 05:04:02;;;;;;;11.57;7.10;;;;;;;2.81;81.67;100764.63;5034020;28;20481;-58
2021/12/22 05:06:34;;;;;;;13.82;7.82;;;;;;;2.81;81.17;100759.50;5050495;28;20032;-58
2021/12/22 05:09:02;;;;;;;13.50;7.97;;;;;;;2.81;81.49;100750.94;5035049;28;20121;-58
2021/12/22 05:11:31;;;;;;;10.77;8.10;;;;;;;2.81;81.38;100756.06;5033743;28;20103;-58
2021/12/22 05:13:56;;;;;;;13.38;8.02;;;;;;;2.80;81.78;100750.06;5017288;28;20053;-58
2021/12/22 05:16:24;;;;;;;10.55;7.25;;;;;;;2.81;81.31;100750.94;5050190;28;20087;-58
2021/12/22 05:21:50;;;;;;;10.95;8.02;;;;;;;2.78;81.18;100758.44;5016014;28;20041;-58
2021/12/22 05:24:16;;;;;;;14.52;9.20;;;;;;;2.79;81.24;100757.66;5034071;28;20046;-58
2021/12/22 05:26:42;;;;;;;12.30;8.23;;;;;;;2.78;81.76;100759.34;5034321;28;20041;-59
2021/12/22 05:29:07;;;;;;;10.18;7.00;;;;;;;2.78;81.16;100763.56;5033007;28;20493;-58
2021/12/22 05:31:33;;;;;;;14.27;8.68;;;;;;;2.78;81.32;100766.13;5034466;28;20035;-59
2021/12/22 05:33:58;;;;;;;12.35;8.55;;;;;;;2.77;81.46;100761.78;5034594;28;20042;-58
2021/12/22 05:36:27;;;;;;;7.85;7.05;;;;;;;2.74;80.86;100765.94;5034729;28;20033;-58
2021/12/22 05:38:53;;;;;;;11.82;8.20;;;;;;;2.75;81.17;100761.72;5033244;28;20424;-58
2021/12/22 05:41:18;;;;;;;10.32;7.05;;;;;;;2.74;81.46;100759.94;5034461;28;20037;-59
2021/12/22 05:43:46;;;;;;;10.93;7.05;;;;;;;2.74;81.18;100763.38;5049629;28;20580;-58
2021/12/22 05:46:12;;;;;;;11.00;7.88;;;;;;;2.73;81.26;100755.59;5034147;28;20083;-59
2021/12/22 05:48:40;;;;;;;12.63;8.10;;;;;;;2.72;81.03;100767.53;5034988;28;20435;-59
2021/12/22 05:51:07;;;;;;;9.95;7.53;;;;;;;2.71;80.94;100755.53;5033191;28;20033;-58
2021/12/22 05:53:33;;;;;;;8.50;6.75;;;;;;;2.72;81.35;100759.88;5016405;28;20112;-58
2021/12/22 05:55:59;;;;;;;12.90;8.63;;;;;;;2.71;81.41;100755.53;5034073;28;20172;-59
2021/12/22 05:58:25;;;;;;;10.32;7.18;;;;;;;2.71;80.88;100752.97;5034117;28;20523;-59
2021/12/22 06:00:51;;;;;;;9.52;7.85;;;;;;;2.72;81.11;100753.84;5032760;28;20481;-58
2021/12/22 06:03:17;;;;;;;13.57;9.38;;;;;;;2.72;81.27;100752.19;5034102;28;20052;-58
2021/12/22 06:05:42;;;;;;;11.25;8.00;;;;;;;2.69;81.27;100746.88;5033894;28;20041;-58
2021/12/22 06:08:08;;;;;;;10.20;7.40;;;;;;;2.69;81.59;100741.75;5033934;28;20113;-58
2021/12/22 06:10:35;;;;;;;13.55;8.93;;;;;;;2.69;81.38;100734.06;5033885;28;20036;-59
2021/12/22 06:13:09;;;;;;;10.75;7.32;;;;;;;2.70;81.57;100732.38;5032824;28;20052;-58
2021/12/22 06:15:38;;;;;;;;;;;;;;;2.68;81.09;100737.44;5049701;28;20473;-58
2021/12/22 06:18:04;;;;;;;13.75;8.35;;;;;;;2.66;81.14;100739.00;5016114;28;19959;-58
2021/12/22 06:20:31;;;;;;;11.60;7.78;;;;;;;2.65;81.36;100731.25;5032511;28;20037;-58
2021/12/22 06:22:57;;;;;;;12.95;7.63;;;;;;;2.65;81.24;100726.13;5033659;28;20033;-58
2021/12/22 06:25:24;;;;;;;13.07;7.88;;;;;;;2.65;81.41;100723.56;5032387;28;20064;-58
2021/12/22 06:27:52;;;;;;;8.73;7.45;;;;;;;2.63;81.22;100714.91;5033656;28;20040;-58
2021/12/22 06:30:20;;;;;;;10.45;7.82;;;;;;;2.61;80.97;100717.38;5032364;28;20029;-58
2021/12/22 06:32:52;;;;;;;9.85;7.60;;;;;;;2.61;80.87;100724.19;5032758;28;20073;-58
2021/12/22 06:35:17;;;;;;;11.15;7.70;;;;;;;2.62;81.66;100724.25;5032570;28;20037;-58
2021/12/22 06:37:44;;;;;;;9.18;7.22;;;;;;;2.61;81.33;100721.63;5033477;28;20118;-59
2021/12/22 06:40:12;;;;;;;13.65;8.38;;;;;;;2.60;81.08;100720.72;5015425;28;20030;-58
2021/12/22 06:42:41;;;;;;;12.95;8.38;;;;;;;2.60;80.92;100725.84;5033186;28;20042;-58
2021/12/22 06:45:09;;;;;;;10.55;8.18;;;;;;;2.61;81.38;100726.75;5032039;28;20053;-58
2021/12/22 06:47:35;;;;;;;9.70;7.07;;;;;;;2.60;81.22;100720.72;5032358;28;20038;-58
2021/12/22 06:50:01;;;;;;;11.32;7.93;;;;;;;2.62;80.95;100721.69;5033330;28;20469;-58
2021/12/22 06:52:27;;;;;;;13.75;9.07;;;;;;;2.60;80.97;100715.59;5033416;28;20036;-59
2021/12/22 06:54:52;;;;;;;11.05;7.72;;;;;;;2.59;81.18;100724.06;5033726;28;20037;-58
2021/12/22 06:57:20;;;;;;;11.13;7.82;;;;;;;2.59;81.00;100719.84;5033113;28;20033;-58
2021/12/22 06:59:47;;;;;;;11.15;8.07;;;;;;;2.59;81.29;100722.41;5033318;28;20044;-58
2021/12/22 07:02:13;;;;;;;10.25;7.20;;;;;;;2.59;81.52;100726.63;5031835;28;20130;-58
2021/12/22 07:04:38;;;;;;;12.00;8.55;;;;;;;2.57;81.11;100729.09;5033246;28;20477;-58
2021/12/22 07:07:04;;;;;;;13.77;9.45;;;;;;;2.57;80.97;100718.88;5033260;28;20072;-58
2021/12/22 07:09:29;;;;;;;10.15;8.48;;;;;;;2.57;81.35;100720.53;5049108;28;20120;-58
2021/12/22 07:11:55;;;;;;;10.93;8.05;;;;;;;2.57;80.96;100721.44;5033179;28;20045;-58
2021/12/22 07:14:21;;;;;;;11.77;8.30;;;;;;;2.56;80.99;100722.22;5033473;28;20080;-58
2021/12/22 07:16:48;;;;;;;12.18;8.77;;;;;;;2.56;81.28;100718.78;5033214;28;20048;-58
2021/12/22 07:19:14;;;;;;;12.20;8.32;;;;;;;2.56;81.14;100726.47;5048986;28;20034;-58
2021/12/22 07:21:40;;;;;;;14.07;7.70;;;;;;;2.56;81.11;100721.34;5033072;28;20544;-59
2021/12/22 07:24:06;;;;;;;11.80;8.18;;;;;;;2.55;80.86;100722.16;5033251;28;20543;-58
2021/12/22 07:26:38;;;;;;;11.93;9.07;;;;;;;2.55;80.99;100730.69;5031853;28;20037;-58
2021/12/22 07:29:10;;;;;;;10.65;8.40;;;;;;;2.54;81.17;100736.59;5033081;28;20400;-58
2021/12/22 07:31:36;;;;;;;14.00;8.65;;;;;;;2.55;81.23;100737.50;5031856;28;20493;-58
2021/12/22 07:34:30;;;;;;;13.57;8.35;;;;;;;2.54;81.34;100730.63;5033010;28;20099;-58
2021/12/22 07:37:14;;;;;;;13.27;9.02;;;;;;;2.53;81.42;100731.41;5029744;28;20046;-58
2021/12/22 07:39:40;;;;;;;12.20;8.20;;;;;;;2.54;80.98;100731.47;5032043;28;20075;-59
2021/12/22 07:42:08;;;;;;;9.82;7.05;;;;;;;2.54;81.25;100735.72;5031751;28;20470;-59
2021/12/22 07:44:34;;;;;;;11.98;8.43;;;;;;;2.54;81.04;100735.72;5031555;28;20079;-59
2021/12/22 07:46:59;;;;;;;11.85;8.32;;;;;;;2.54;81.40;100734.03;5032789;28;20038;-59
2021/12/22 07:49:25;;;;;;;14.90;8.75;;;;;;;2.54;81.53;100736.59;5032936;28;20061;-59
2021/12/22 07:51:56;;;;;;;11.38;9.23;;;;;;;2.54;81.60;100740.84;5035892;28;20037;-59
2021/12/22 07:54:26;;;;;;;11.43;8.40;;;;;;;2.53;81.13;100744.19;5035111;28;20488;-59
2021/12/22 07:56:52;;;;;;;11.93;9.25;;;;;;;2.53;81.31;100739.94;5036569;28;20041;-59
2021/12/22 07:59:20;;;;;;;10.18;8.10;;;;;;;2.53;80.99;100739.94;5035162;28;20033;-60
2021/12/22 08:01:45;;;;;;;14.07;9.00;;;;;;;2.51;81.29;100733.84;5034966;28;20118;-59
2021/12/22 08:04:14;;;;;;;11.65;7.78;;;;;;;2.52;81.67;100732.19;5036463;28;20492;-59
2021/12/22 08:06:42;;;;;;;12.18;9.00;;;;;;;2.52;80.72;100729.63;5019139;28;20519;-59
2021/12/22 08:09:08;;;;;;;13.25;8.75;;;;;;;2.52;80.89;100742.44;5036951;28;20037;-59
2021/12/22 08:11:33;;;;;;;14.55;8.70;;;;;;;2.51;81.19;100728.72;5036369;28;20030;-59
2021/12/22 08:14:03;;;;;;;11.15;7.82;;;;;;;2.52;80.96;100732.19;5036147;28;20033;-59
2021/12/22 08:16:31;;;;;;;11.63;8.15;;;;;;;2.51;81.49;100735.53;5036134;28;20030;-58
2021/12/22 08:18:57;;;;;;;10.15;8.07;;;;;;;2.50;81.39;100729.53;5018256;28;20037;-58
2021/12/22 08:21:25;;;;;;;11.60;8.40;;;;;;;2.49;81.44;100727.75;5051783;28;20052;-58
2021/12/22 08:23:51;;;;;;;12.30;8.95;;;;;;;2.50;81.51;100726.09;5035499;28;20120;-58
2021/12/22 08:26:19;;;;;;;11.40;8.02;;;;;;;2.49;80.98;100717.50;5051961;28;20077;-58
2021/12/22 08:28:48;;;;;;;11.00;8.02;;;;;;;2.50;81.01;100721.84;5035694;28;20124;-58
2021/12/22 08:31:15;;;;;;;13.98;9.50;;;;;;;2.50;81.06;100720.97;5034524;28;20038;-58
2021/12/22 08:33:44;;;;;;;16.85;8.35;;;;;;;2.48;80.95;100715.78;5034633;28;20159;-58
2021/12/22 08:39:02;;;;;;;12.48;9.23;;;;;;;2.48;81.04;100720.00;5034527;28;20091;-59
2021/12/22 08:41:31;;;;;;;13.70;8.57;;;;;;;2.47;81.11;100708.00;5034147;28;20043;-59
2021/12/22 08:44:07;;;;;;;14.93;9.07;;;;;;;2.46;80.83;100711.34;5034179;28;20033;-59
2021/12/22 08:46:35;;;;;;;11.57;8.57;;;;;;;2.47;81.17;100710.56;5035673;28;20064;-59
2021/12/22 08:49:06;;;;;;;12.30;9.25;;;;;;;2.48;81.33;100709.75;5034135;28;20040;-59
2021/12/22 08:51:32;;;;;;;10.43;7.95;;;;;;;2.45;80.91;100710.47;5034205;28;20132;-59
2021/12/22 08:54:00;;;;;;;13.23;10.15;;;;;;;2.45;81.04;100710.47;5035300;28;20465;-59
2021/12/22 08:56:26;;;;;;;12.95;8.98;;;;;;;2.43;81.34;100712.91;5034278;28;20048;-59
2021/12/22 08:58:54;;;;;;;13.10;7.85;;;;;;;2.43;81.02;100712.91;5035081;28;20041;-59
2021/12/22 09:01:24;;;;;;;10.50;8.93;;;;;;;2.43;80.75;100712.06;5033670;28;20034;-59
2021/12/22 09:03:50;;;;;;;13.18;9.75;;;;;;;2.45;80.84;100710.47;5035222;28;20041;-59
2021/12/22 09:06:17;;;;;;;12.38;9.75;;;;;;;2.43;80.70;100709.50;5050701;28;20029;-59
2021/12/22 09:08:49;;;;;;;14.75;8.95;;;;;;;2.43;80.95;100715.47;5033841;28;20451;-59
2021/12/22 09:11:14;;;;;;;15.95;8.35;;;;;;;2.42;80.77;100713.72;5035219;28;20112;-59
2021/12/22 09:13:41;;;;;;;13.40;9.25;;;;;;;2.42;81.49;100721.38;5050787;28;20128;-59
2021/12/22 09:16:08;;;;;;;16.50;8.88;;;;;;;2.43;80.73;100715.47;5033882;28;20052;-59
2021/12/22 09:18:34;;;;;;;11.43;8.65;;;;;;;2.42;81.22;100711.16;5033688;28;20048;-59
2021/12/22 09:21:08;;;;;;;11.73;8.07;;;;;;;2.43;81.14;100709.50;5016994;28;20179;-59
2021/12/22 09:23:33;;;;;;;11.07;8.23;;;;;;;2.44;81.10;100718.94;5034955;28;20385;-59
2021/12/22 09:25:59;;;;;;;12.95;8.98;;;;;;;2.41;81.13;100709.38;5034566;28;20049;-59
2021/12/22 09:28:30;;;;;;;11.25;8.73;;;;;;;2.42;81.08;100716.28;5033414;28;20033;-59
2021/12/22 09:31:06;;;;;;;12.43;9.02;;;;;;;2.42;80.98;100721.38;5034805;28;20041;-59
2021/12/22 09:33:39;;;;;;;14.05;9.48;;;;;;;2.41;80.85;100718.75;5034571;28;20191;-59
2021/12/22 09:36:07;;;;;;;12.23;8.85;;;;;;;2.42;80.89;100711.16;5050263;28;20056;-59
2021/12/22 09:38:36;;;;;;;14.60;8.88;;;;;;;2.41;81.11;100705.97;5016745;28;20125;-59
2021/12/22 09:41:06;;;;;;;12.55;8.93;;;;;;;2.40;80.96;100707.66;5033140;28;20048;-59
2021/12/22 09:43:32;;;;;;;12.95;8.80;;;;;;;2.40;81.52;100704.19;5033212;28;20061;-59
2021/12/22 09:46:04;;;;;;;10.10;8.05;;;;;;;2.41;81.09;100706.81;5033181;28;20124;-59
2021/12/22 09:53:27;;;;;;;13.02;8.48;;;;;;;2.40;81.57;100701.63;5034469;28;20037;-59
2021/12/22 09:55:58;;;;;;;10.55;7.93;;;;;;;2.41;80.66;100704.28;5033084;28;20046;-59
2021/12/22 09:58:24;;;;;;;11.38;9.10;;;;;;;2.40;80.70;100702.53;5034113;28;20496;-59
2021/12/22 10:00:56;;;;;;;10.05;7.95;;;;;;;2.40;81.43;100692.31;5032755;28;20038;-59
2021/12/22 10:03:31;;;;;;;15.23;8.52;;;;;;;2.41;80.72;100703.41;5032493;28;20049;-59
2021/12/22 10:05:56;;;;;;;11.90;7.78;;;;;;;2.40;81.21;100699.06;5033082;28;20033;-59
2021/12/22 10:08:24;;;;;;;9.63;8.10;;;;;;;2.41;81.50;100700.84;5034057;28;20045;-59
2021/12/22 10:10:59;;;;;;;12.10;8.70;;;;;;;2.41;80.92;100698.28;5032683;28;20038;-59
2021/12/22 10:13:29;;;;;;;11.00;8.40;;;;;;;2.39;80.94;100695.66;5033012;28;20075;-59
2021/12/22 10:15:57;;;;;;;12.07;8.55;;;;;;;2.40;81.22;100697.41;5032591;28;20103;-59
2021/12/22 10:18:28;;;;;;;12.15;7.97;;;;;;;2.40;80.93;100692.31;5032522;28;20034;-59
2021/12/22 10:21:11;;;;;;;9.63;7.15;;;;;;;2.39;80.83;100690.53;5049107;28;20042;-59
2021/12/22 10:23:52;;;;;;;10.18;8.43;;;;;;;2.40;80.87;100681.16;5032438;28;20029;-58
2021/12/22 10:26:22;;;;;;;11.27;9.05;;;;;;;2.40;80.97;100674.38;5049194;28;20473;-58
2021/12/22 10:28:51;;;;;;;9.75;8.27;;;;;;;2.39;81.01;100664.03;5033871;28;20052;-58
2021/12/22 10:31:23;;;;;;;10.15;8.07;;;;;;;2.40;81.19;100669.28;5032977;28;20087;-58
2021/12/22 10:33:51;;;;;;;11.55;8.15;;;;;;;2.39;81.15;100664.94;5032478;28;20045;-58
2021/12/22 10:36:23;;;;;;;11.05;7.82;;;;;;;2.39;80.79;100672.63;5033482;28;20041;-58
2021/12/22 10:39:01;;;;;;;11.50;8.38;;;;;;;2.38;81.00;100668.28;5033377;28;20038;-58
2021/12/22 10:41:29;;;;;;;12.27;8.18;;;;;;;2.38;80.99;100678.53;5033389;28;20040;-58
2021/12/22 10:43:57;;;;;;;10.93;8.68;;;;;;;2.39;81.30;100672.63;5048727;28;20061;-58
2021/12/22 10:46:31;;;;;;;14.23;9.90;;;;;;;2.38;80.61;100668.28;5032340;28;20041;-58
2021/12/22 10:49:14;;;;;;;11.75;8.57;;;;;;;2.39;80.63;100656.38;5049150;28;20056;-58
2021/12/22 10:51:42;;;;;;;13.05;7.93;;;;;;;2.40;81.21;100653.91;5032281;28;20404;-58
2021/12/22 10:54:13;;;;;;;12.25;8.85;;;;;;;2.40;80.70;100648.81;5032106;28;20091;-58
2021/12/22 10:56:41;;;;;;;11.48;8.38;;;;;;;2.41;81.02;100647.09;5048738;28;20041;-58
2021/12/22 10:59:16;;;;;;;11.05;9.02;;;;;;;2.41;81.10;100640.31;5049008;28;20034;-59
2021/12/22 11:01:54;;;;;;;15.88;9.35;;;;;;;2.41;80.73;100629.19;5033342;28;20053;-59
2021/12/22 11:04:44;;;;;;;12.43;9.23;;;;;;;2.41;81.01;100624.94;5031907;28;20033;-58
2021/12/22 11:07:23;;;;;;;13.10;8.23;;;;;;;2.41;80.89;100621.53;5012744;28;20044;-58
2021/12/22 11:09:52;;;;;;;12.32;9.15;;;;;;;2.42;80.66;100615.63;5033511;28;20625;-59
2021/12/22 11:12:37;;;;;;;10.20;8.57;;;;;;;2.43;81.11;100617.38;5015578;28;20038;-58
2021/12/22 11:15:22;;;;;;;11.27;8.32;;;;;;;2.44;81.06;100612.34;5048884;28;20061;-58
2021/12/22 11:17:53;;;;;;;10.95;7.65;;;;;;;2.46;80.84;100609.00;5032288;28;20029;-58
2021/12/22 11:20:23;;;;;;;11.93;8.27;;;;;;;2.47;81.00;100606.53;5031885;28;20060;-58
2021/12/22 11:23:04;;;;;;;12.18;9.05;;;;;;;2.48;80.94;100597.16;5033482;28;20079;-58
2021/12/22 11:25:30;;;;;;;14.48;8.80;;;;;;;2.49;81.22;100591.25;5049118;28;20052;-58
2021/12/22 11:27:59;;;;;;;11.02;8.50;;;;;;;2.51;80.81;100593.09;5035680;28;20044;-58
2021/12/22 11:30:27;;;;;;;10.98;8.65;;;;;;;2.52;81.24;100592.31;5036818;28;20033;-59
2021/12/22 11:32:59;;;;;;;10.90;8.43;;;;;;;2.54;80.70;100594.97;5035665;28;20045;-58
2021/12/22 11:35:25;;;;;;;13.95;9.27;;;;;;;2.56;80.81;100588.28;5037285;28;20033;-58
2021/12/22 11:37:51;;;;;;;12.50;8.10;;;;;;;2.56;80.63;100586.59;5037069;28;20041;-58
2021/12/22 11:40:18;;;;;;;16.58;8.88;;;;;;;2.57;80.70;100587.44;5036825;28;20040;-58
2021/12/22 11:42:45;;;;;;;10.35;8.20;;;;;;;2.59;80.69;100585.88;5035413;28;20045;-58
2021/12/22 11:45:17;;;;;;;9.70;7.85;;;;;;;2.61;80.58;100588.53;5036596;28;20025;-59
2021/12/22 11:47:45;;;;;;;11.23;7.95;;;;;;;2.62;80.53;100583.47;5036824;28;20037;-58
2021/12/22 11:50:23;;;;;;;13.23;9.10;;;;;;;2.64;80.40;100584.47;5035580;28;20034;-58
2021/12/22 11:53:04;;;;;;;14.40;7.75;;;;;;;2.65;81.19;100577.69;5035014;28;20030;-58
2021/12/22 11:55:40;;;;;;;12.07;8.07;;;;;;;2.64;80.63;100579.34;5035523;28;20128;-59